Terminal Aerodrome Forecast
Issued by NWS

Home | Current Version | Previous Version | Text Only | Print | Product List | Glossary On
Versions: 1 2 3 4 5 6 7 8 9 10 11 12 13 14 15
930
FTUS43 KDTX 191123
TAFDET
TAF
KDET 191123Z 1912/2012 24005KT P6SM VCSH BKN060
     FM191600 26008KT P6SM SKC
     FM191800 29011KT P6SM SCT060
     FM200000 VRB03KT P6SM SKC=

USA.gov is the U.S. government's official web portal to all federal, state and local government web resources and services.